createdAt,value
2022-10-14T00:01:11.845Z,97273.53
2022-10-14T00:03:39.306Z,97265.25
2022-10-14T00:06:08.044Z,97252.78
2022-10-14T00:08:34.845Z,97253.50
2022-10-14T00:11:20.769Z,97259.59
2022-10-14T00:13:57.998Z,97256.84
2022-10-14T00:16:29.361Z,97256.84
2022-10-14T00:18:57.002Z,97255.41
2022-10-14T00:21:26.017Z,97251.94
2022-10-14T00:23:52.751Z,97260.91
2022-10-14T00:26:25.619Z,97249.06
2022-10-14T00:28:52.576Z,97252.56
2022-10-14T00:31:20.180Z,97244.28
2022-10-14T00:33:48.210Z,97245.59
2022-10-14T00:36:17.469Z,97256.53
2022-10-14T00:38:45.711Z,97248.97
2022-10-14T00:41:18.948Z,97253.75
2022-10-14T00:44:15.573Z,97245.50
2022-10-14T00:46:44.247Z,97241.91
2022-10-14T00:49:29.123Z,97257.72
2022-10-14T00:52:02.839Z,97245.28
2022-10-14T00:54:34.973Z,97251.41
2022-10-14T00:57:02.371Z,97247.94
2022-10-14T00:59:29.424Z,97246.50
2022-10-14T01:01:56.141Z,97249.25
2022-10-14T01:04:24.897Z,97234.03
2022-10-14T01:07:28.949Z,97239.53
2022-10-14T01:10:22.064Z,97245.66
2022-10-14T01:13:18.120Z,97246.28
2022-10-14T01:16:03.577Z,97230.47
2022-10-14T01:19:01.166Z,97233.84
2022-10-14T01:21:37.868Z,97221.97
2022-10-14T01:24:37.225Z,97235.75
2022-10-14T01:27:17.447Z,97231.56
2022-10-14T01:30:06.154Z,97233.63
2022-10-14T01:32:51.160Z,97230.88
2022-10-14T01:35:24.225Z,97221.75
2022-10-14T01:38:08.723Z,97213.50
2022-10-14T01:40:58.497Z,97208.13
2022-10-14T01:43:27.688Z,97208.81
2022-10-14T01:45:55.830Z,97204.66
2022-10-14T01:48:26.354Z,97206.69
2022-10-14T01:50:52.968Z,97212.00
2022-10-14T01:53:25.359Z,97200.56
2022-10-14T01:55:54.206Z,97200.47
2022-10-14T01:58:25.841Z,97196.88
2022-10-14T02:00:53.798Z,97191.47
2022-10-14T02:03:20.474Z,97186.56
2022-10-14T02:05:52.668Z,97186.56
2022-10-14T02:08:50.332Z,97179.72
2022-10-14T02:11:18.233Z,97175.56
2022-10-14T02:14:12.998Z,97174.94
2022-10-14T02:16:56.055Z,97174.13
2022-10-14T02:19:59.868Z,97165.84
2022-10-14T02:22:31.763Z,97171.38
2022-10-14T02:25:13.503Z,97170.66
2022-10-14T02:27:43.215Z,97170.66
2022-10-14T02:30:11.346Z,97164.53
2022-10-14T02:32:39.032Z,97158.31
2022-10-14T02:35:06.930Z,97160.34
2022-10-14T02:37:33.980Z,97149.34
2022-10-14T02:40:07.513Z,97139.66
2022-10-14T02:42:34.776Z,97137.59
2022-10-14T02:45:05.072Z,97130.06
2022-10-14T02:47:31.880Z,97130.75
2022-10-14T02:49:58.559Z,97123.81
2022-10-14T02:52:25.303Z,97118.31
2022-10-14T02:54:53.084Z,97114.13
2022-10-14T02:57:19.795Z,97116.19
2022-10-14T02:59:48.348Z,97117.50
2022-10-14T03:02:15.151Z,97115.44
2022-10-14T03:04:42.123Z,97118.81
2022-10-14T03:07:09.695Z,97122.91
2022-10-14T03:09:42.271Z,97118.09
2022-10-14T03:12:10.184Z,97112.50
2022-10-14T03:14:37.185Z,97114.53
2022-10-14T03:17:05.672Z,97114.53
2022-10-14T03:19:33.907Z,97099.31
2022-10-14T03:22:00.877Z,97101.38
2022-10-14T03:24:27.583Z,97096.47
2022-10-14T03:27:16.761Z,97095.75
2022-10-14T03:29:46.395Z,97094.34
2022-10-14T03:32:19.299Z,97091.47
2022-10-14T03:35:06.724Z,97092.19
2022-10-14T03:37:33.611Z,97085.84
2022-10-14T03:40:00.672Z,97084.44
2022-10-14T03:42:27.558Z,97079.53
2022-10-14T03:44:55.119Z,97078.22
2022-10-14T03:47:26.247Z,97067.06
2022-10-14T03:49:56.351Z,97063.63
2022-10-14T03:52:37.664Z,97062.19
2022-10-14T03:55:14.875Z,97059.44
2022-10-14T03:57:43.399Z,97048.31
2022-10-14T04:00:11.355Z,97046.88
2022-10-14T04:02:41.190Z,97040.78
2022-10-14T04:05:18.921Z,97044.13
2022-10-14T04:07:48.432Z,97040.66
2022-10-14T04:10:15.256Z,97035.06
2022-10-14T04:12:48.468Z,97032.31
2022-10-14T04:15:31.169Z,97032.31
2022-10-14T04:18:08.302Z,97032.31
2022-10-14T04:20:37.732Z,97028.00
2022-10-14T04:23:05.304Z,97025.97
2022-10-14T04:25:34.278Z,97034.22
2022-10-14T04:28:03.647Z,97019.03
2022-10-14T04:30:43.144Z,97024.53
2022-10-14T04:33:16.199Z,97025.25
2022-10-14T04:35:43.000Z,97022.41
2022-10-14T04:38:19.652Z,97024.53
2022-10-14T04:40:53.544Z,97027.91
2022-10-14T04:43:21.005Z,97023.03
2022-10-14T04:45:48.144Z,97025.78
2022-10-14T04:48:22.379Z,97020.28
2022-10-14T04:50:53.529Z,97020.28
2022-10-14T04:53:55.588Z,97012.72
2022-10-14T04:56:32.883Z,97016.19
2022-10-14T04:59:02.236Z,97009.25
2022-10-14T05:02:07.435Z,97007.22
2022-10-14T05:04:47.049Z,97007.84
2022-10-14T05:07:14.933Z,97002.34
2022-10-14T05:09:46.251Z,96996.81
2022-10-14T05:12:24.619Z,96998.97
2022-10-14T05:14:56.817Z,96998.25
2022-10-14T05:17:30.821Z,96997.63
2022-10-14T05:19:57.853Z,96992.03
2022-10-14T05:22:26.806Z,96995.50
2022-10-14T05:24:53.689Z,96996.91
2022-10-14T05:27:20.536Z,96989.38
2022-10-14T05:29:48.888Z,96990.09
2022-10-14T05:32:16.544Z,96989.47
2022-10-14T05:34:48.536Z,96985.41
2022-10-14T05:37:27.549Z,96974.41
2022-10-14T05:39:55.635Z,96974.50
2022-10-14T05:42:25.895Z,96974.50
2022-10-14T05:44:55.795Z,96973.06
2022-10-14T05:47:24.004Z,96968.78
2022-10-14T05:49:56.460Z,96962.03
2022-10-14T05:52:24.374Z,96958.66
2022-10-14T05:54:51.806Z,96965.56
2022-10-14T05:57:23.089Z,96966.44
2022-10-14T05:59:49.824Z,96965.91
2022-10-14T06:02:16.660Z,96960.19
2022-10-14T06:04:45.463Z,96969.66
2022-10-14T06:07:13.381Z,96964.06
2022-10-14T06:09:40.593Z,96969.56
2022-10-14T06:12:09.812Z,96960.47
2022-10-14T06:14:38.638Z,96957.72
2022-10-14T06:17:06.271Z,96970.84
2022-10-14T06:19:35.620Z,96961.91
2022-10-14T06:22:02.407Z,96964.06
2022-10-14T06:24:29.478Z,96963.50
2022-10-14T06:26:57.391Z,96955.81
2022-10-14T06:29:26.418Z,96949.00
2022-10-14T06:31:53.207Z,96951.25
2022-10-14T06:34:23.061Z,96951.47
2022-10-14T06:36:49.906Z,96950.97
2022-10-14T06:39:16.579Z,96956.47
2022-10-14T06:41:44.520Z,96955.59
2022-10-14T06:44:18.822Z,96959.47
2022-10-14T06:46:45.532Z,96961.81
2022-10-14T06:49:12.188Z,96964.91
2022-10-14T06:51:39.803Z,96961.78
2022-10-14T06:54:08.087Z,96958.50
2022-10-14T06:56:35.016Z,96959.56
2022-10-14T06:59:01.766Z,96957.13
2022-10-14T07:01:28.672Z,96957.84
2022-10-14T07:03:56.747Z,96961.41
2022-10-14T07:06:24.039Z,96963.34
2022-10-14T07:08:50.664Z,96958.28
2022-10-14T07:11:17.391Z,96958.66
2022-10-14T07:13:46.151Z,96965.81
2022-10-14T07:16:13.003Z,96970.09
2022-10-14T07:18:40.567Z,96966.44
2022-10-14T07:21:08.918Z,96959.81
2022-10-14T07:23:35.557Z,96977.44
2022-10-14T07:26:02.648Z,96971.81
2022-10-14T07:28:29.592Z,96969.53
2022-10-14T07:31:09.905Z,96973.91
2022-10-14T07:36:12.323Z,96974.94
2022-10-14T07:38:39.140Z,96976.06
2022-10-14T07:41:16.940Z,96973.78
2022-10-14T07:43:53.049Z,96974.78
2022-10-14T07:46:33.068Z,96977.75
2022-10-14T07:49:05.873Z,96974.56
2022-10-14T07:51:33.724Z,96987.91
2022-10-14T07:54:01.910Z,96988.38
2022-10-14T07:56:28.950Z,96984.56
2022-10-14T07:58:55.687Z,96988.38
2022-10-14T08:01:24.291Z,96985.56
2022-10-14T08:03:52.036Z,96988.38
2022-10-14T08:06:18.987Z,96992.09
2022-10-14T08:08:45.686Z,96989.63
2022-10-14T08:11:15.635Z,96991.22
2022-10-14T08:13:45.274Z,96980.44
2022-10-14T08:16:20.326Z,96983.66
2022-10-14T08:18:47.724Z,96985.25
2022-10-14T08:21:15.069Z,96981.56
2022-10-14T08:23:41.977Z,96988.06
2022-10-14T08:26:38.357Z,96983.25
2022-10-14T08:29:10.836Z,96983.78
2022-10-14T08:31:38.062Z,96976.47
2022-10-14T08:34:04.780Z,96969.88
2022-10-14T08:36:31.678Z,96980.75
2022-10-14T08:38:58.723Z,96982.53
2022-10-14T08:41:36.419Z,96978.44
2022-10-14T08:44:41.906Z,96973.09
2022-10-14T08:47:14.154Z,96975.06
2022-10-14T08:49:43.449Z,96973.97
2022-10-14T08:52:37.778Z,96970.13
2022-10-14T08:55:34.005Z,96982.06
2022-10-14T08:58:08.963Z,96971.28
2022-10-14T09:00:41.259Z,96977.44
2022-10-14T09:03:16.961Z,96978.09
2022-10-14T09:05:43.859Z,96970.97
2022-10-14T09:08:15.240Z,96967.38
2022-10-14T09:10:42.899Z,96976.56
2022-10-14T09:13:19.136Z,96967.13
2022-10-14T09:15:48.687Z,96966.75
2022-10-14T09:18:15.389Z,96964.47
2022-10-14T09:20:42.328Z,96963.66
2022-10-14T09:23:20.606Z,96967.56
2022-10-14T09:25:54.796Z,96967.56
2022-10-14T09:28:36.456Z,96967.22
2022-10-14T09:31:04.570Z,96956.69
2022-10-14T09:33:31.427Z,96958.09
2022-10-14T09:38:26.355Z,96954.31
2022-10-14T09:40:58.988Z,96952.38
2022-10-14T09:43:28.949Z,96961.72
2022-10-14T09:45:57.000Z,96958.31
2022-10-14T09:48:26.642Z,96955.47
2022-10-14T09:50:55.842Z,96955.41
2022-10-14T09:53:31.718Z,96953.44
2022-10-14T09:56:04.075Z,96956.75
2022-10-14T09:58:53.713Z,96957.81
2022-10-14T10:01:22.687Z,96948.72
2022-10-14T10:03:51.454Z,96957.75
2022-10-14T10:06:29.740Z,96961.03
2022-10-14T10:09:00.103Z,96959.81
2022-10-14T10:11:28.258Z,96957.69
2022-10-14T10:13:55.486Z,96954.75
2022-10-14T10:16:23.864Z,96957.13
2022-10-14T10:18:52.487Z,96959.97
2022-10-14T10:21:26.501Z,96959.03
2022-10-14T10:24:03.687Z,96962.66
2022-10-14T10:26:33.462Z,96955.97
2022-10-14T10:29:02.953Z,96946.25
2022-10-14T10:31:37.782Z,96953.34
2022-10-14T10:34:16.699Z,96945.41
2022-10-14T10:36:48.271Z,96943.41
2022-10-14T10:39:24.634Z,96945.53
2022-10-14T10:42:27.103Z,96938.03
2022-10-14T10:45:16.131Z,96941.13
2022-10-14T10:48:00.168Z,96946.88
2022-10-14T10:51:11.852Z,96938.28
2022-10-14T10:54:02.898Z,96938.91
2022-10-14T10:56:49.429Z,96945.41
2022-10-14T10:59:37.265Z,96942.00
2022-10-14T11:02:27.466Z,96934.88
2022-10-14T11:05:13.149Z,96929.50
2022-10-14T11:08:04.399Z,96934.41
2022-10-14T11:11:02.106Z,96930.13
2022-10-14T11:13:38.531Z,96931.69
2022-10-14T11:16:10.761Z,96930.56
2022-10-14T11:18:47.596Z,96931.03
2022-10-14T11:21:22.081Z,96927.63
2022-10-14T11:24:00.142Z,96922.34
2022-10-14T11:26:57.508Z,96921.25
2022-10-14T11:29:48.744Z,96923.00
2022-10-14T11:32:18.338Z,96920.53
2022-10-14T11:35:09.593Z,96919.75
2022-10-14T11:37:51.340Z,96918.53
2022-10-14T11:40:29.013Z,96902.13
2022-10-14T11:43:26.651Z,96908.16
2022-10-14T11:45:58.470Z,96905.00
2022-10-14T11:48:43.798Z,96901.78
2022-10-14T11:51:25.192Z,96911.50
2022-10-14T11:53:58.969Z,96908.41
2022-10-14T11:56:29.703Z,96903.47
2022-10-14T11:58:59.635Z,96898.84
2022-10-14T12:01:34.188Z,96906.13
2022-10-14T12:04:10.420Z,96907.06
2022-10-14T12:06:50.051Z,96894.03
2022-10-14T12:09:32.181Z,96890.16
2022-10-14T12:12:04.284Z,96901.69
2022-10-14T12:14:37.095Z,96903.81
2022-10-14T12:17:35.338Z,96901.34
2022-10-14T12:20:16.862Z,96903.19
2022-10-14T12:22:44.388Z,96905.47
2022-10-14T12:25:17.258Z,96917.41
2022-10-14T12:27:44.181Z,96911.94
2022-10-14T12:30:32.938Z,96908.25
2022-10-14T12:33:09.463Z,96908.91
2022-10-14T12:35:59.991Z,96914.53
2022-10-14T12:38:29.123Z,96914.41
2022-10-14T12:41:36.140Z,96907.59
2022-10-14T12:44:04.311Z,96894.84
2022-10-14T12:46:31.507Z,96900.75
2022-10-14T12:49:00.450Z,96894.03
2022-10-14T12:51:28.218Z,96909.22
2022-10-14T12:54:00.129Z,96902.56
2022-10-14T12:56:32.007Z,96925.06
2022-10-14T12:59:01.354Z,96923.91
2022-10-14T13:01:31.036Z,96926.41
2022-10-14T13:04:19.940Z,96919.00
2022-10-14T13:07:35.699Z,96923.03
2022-10-14T13:10:45.979Z,96915.38
2022-10-14T13:13:31.895Z,96912.28
2022-10-14T13:16:01.445Z,96916.66
2022-10-14T13:18:31.596Z,96915.44
2022-10-14T13:20:58.457Z,96910.44
2022-10-14T13:23:30.438Z,96912.19
2022-10-14T13:26:15.953Z,96914.50
2022-10-14T13:28:51.815Z,96901.69
2022-10-14T13:31:43.478Z,96896.72
2022-10-14T13:34:47.922Z,96884.78
2022-10-14T13:37:35.185Z,96895.38
2022-10-14T13:42:55.548Z,96880.69
2022-10-14T13:45:28.361Z,96881.81
2022-10-14T13:47:55.179Z,96870.47
2022-10-14T13:50:24.219Z,96869.19
2022-10-14T13:52:59.487Z,96868.88
2022-10-14T13:55:28.447Z,96871.09
2022-10-14T13:58:18.540Z,96870.28
2022-10-14T14:00:49.895Z,96866.81
2022-10-14T14:03:25.817Z,96861.28
2022-10-14T14:05:53.529Z,96860.72
2022-10-14T14:08:40.561Z,96850.84
2022-10-14T14:11:17.211Z,96861.38
2022-10-14T14:14:05.023Z,96852.50
2022-10-14T14:16:41.184Z,96848.94
2022-10-14T14:19:30.776Z,96840.81
2022-10-14T14:22:27.260Z,96827.41
2022-10-14T14:25:38.146Z,96816.25
2022-10-14T14:28:13.575Z,96816.13
2022-10-14T14:30:42.580Z,96811.72
2022-10-14T14:33:16.051Z,96808.59
2022-10-14T14:36:22.266Z,96810.00
2022-10-14T14:39:01.128Z,96802.56
2022-10-14T14:41:30.059Z,96808.59
2022-10-14T14:44:20.918Z,96811.28
2022-10-14T14:46:45.594Z,96806.34
2022-10-14T14:49:16.532Z,96797.03
2022-10-14T14:51:44.023Z,96802.56
2022-10-14T14:54:17.592Z,96806.47
2022-10-14T14:56:50.860Z,96809.72
2022-10-14T14:59:28.576Z,96804.13
2022-10-14T15:01:57.058Z,96799.22
2022-10-14T15:04:28.688Z,96790.00
2022-10-14T15:07:21.122Z,96789.78
2022-10-14T15:09:53.841Z,96787.22
2022-10-14T15:12:30.755Z,96780.25
2022-10-14T15:15:05.689Z,96774.66
2022-10-14T15:17:40.667Z,96774.03
2022-10-14T15:20:07.398Z,96769.63
2022-10-14T15:22:38.995Z,96764.59
2022-10-14T15:25:25.318Z,96755.44
2022-10-14T15:27:53.521Z,96761.44
2022-10-14T15:30:23.391Z,96761.75
2022-10-14T15:32:52.198Z,96754.34
2022-10-14T15:35:20.914Z,96741.47
2022-10-14T15:37:49.345Z,96742.53
2022-10-14T15:40:19.185Z,96744.56
2022-10-14T15:42:47.155Z,96741.34
2022-10-14T15:45:14.395Z,96735.75
2022-10-14T15:47:41.293Z,96726.81
2022-10-14T15:50:19.928Z,96734.47
2022-10-14T15:52:53.867Z,96726.81
2022-10-14T15:55:26.009Z,96726.75
2022-10-14T15:57:53.056Z,96726.03
2022-10-14T16:00:21.412Z,96721.13
2022-10-14T16:02:51.071Z,96714.84
2022-10-14T16:05:20.380Z,96719.72
2022-10-14T16:07:48.443Z,96711.75
2022-10-14T16:10:20.411Z,96707.34
2022-10-14T16:12:47.209Z,96702.56
2022-10-14T16:15:27.276Z,96698.91
2022-10-14T16:17:54.163Z,96696.69
2022-10-14T16:20:21.499Z,96701.25
2022-10-14T16:22:48.623Z,96691.94
2022-10-14T16:25:33.643Z,96688.56
2022-10-14T16:28:00.676Z,96678.31
2022-10-14T16:30:28.138Z,96685.63
2022-10-14T16:32:55.826Z,96676.81
2022-10-14T16:35:22.538Z,96671.84
2022-10-14T16:37:49.360Z,96671.44
2022-10-14T16:40:16.204Z,96664.28
2022-10-14T16:42:42.926Z,96669.72
2022-10-14T16:45:10.099Z,96664.41
2022-10-14T16:47:38.136Z,96671.25
2022-10-14T16:50:06.958Z,96666.97
2022-10-14T16:52:54.510Z,96666.91
2022-10-14T16:55:22.563Z,96675.13
2022-10-14T16:57:49.408Z,96668.59
2022-10-14T17:02:48.514Z,96672.00
2022-10-14T17:05:15.577Z,96669.47
2022-10-14T17:07:43.396Z,96655.22
2022-10-14T17:10:10.823Z,96669.84
2022-10-14T17:12:38.013Z,96670.00
2022-10-14T17:15:05.719Z,96659.84
2022-10-14T17:17:32.719Z,96662.03
2022-10-14T17:19:59.423Z,96666.28
2022-10-14T17:22:27.031Z,96666.38
2022-10-14T17:24:54.943Z,96667.84
2022-10-14T17:27:24.229Z,96659.03
2022-10-14T17:29:52.019Z,96654.59
2022-10-14T17:32:18.914Z,96653.78
2022-10-14T17:34:45.920Z,96653.06
2022-10-14T17:37:12.681Z,96652.38
2022-10-14T17:39:39.437Z,96640.69
2022-10-14T17:42:06.130Z,96644.22
2022-10-14T17:44:33.352Z,96633.88
2022-10-14T17:47:01.347Z,96632.53
2022-10-14T17:49:31.104Z,96632.69
2022-10-14T17:52:02.164Z,96630.00
2022-10-14T17:54:32.100Z,96627.22
2022-10-14T17:56:58.771Z,96627.31
2022-10-14T17:59:25.527Z,96628.03
2022-10-14T18:02:07.562Z,96629.44
2022-10-14T18:04:34.467Z,96623.97
2022-10-14T18:07:01.580Z,96628.19
2022-10-14T18:09:28.423Z,96621.31
2022-10-14T18:12:10.797Z,96624.75
2022-10-14T18:14:38.668Z,96623.41
2022-10-14T18:17:05.742Z,96608.25
2022-10-14T18:19:32.897Z,96622.78
2022-10-14T18:22:00.400Z,96608.25
2022-10-14T18:24:27.235Z,96615.22
2022-10-14T18:26:53.971Z,96623.56
2022-10-14T18:29:20.945Z,96618.03
2022-10-14T18:31:49.506Z,96610.44
2022-10-14T18:34:16.395Z,96609.09
2022-10-14T18:36:43.052Z,96627.75
2022-10-14T18:39:13.128Z,96616.63
2022-10-14T18:41:39.900Z,96626.38
2022-10-14T18:44:06.795Z,96613.91
2022-10-14T18:46:35.679Z,96611.88
2022-10-14T18:49:04.313Z,96617.34
2022-10-14T18:51:34.915Z,96607.69
2022-10-14T18:54:07.526Z,96604.94
2022-10-14T18:56:38.216Z,96605.69
2022-10-14T18:59:09.011Z,96600.91
2022-10-14T19:01:37.291Z,96599.53
2022-10-14T19:04:06.304Z,96592.59
2022-10-14T19:06:34.204Z,96598.84
2022-10-14T19:09:01.864Z,96601.66
2022-10-14T19:11:30.686Z,96593.38
2022-10-14T19:13:59.153Z,96595.44
2022-10-14T19:16:28.227Z,96587.84
2022-10-14T19:18:56.806Z,96580.91
2022-10-14T19:21:26.774Z,96590.59
2022-10-14T19:23:53.561Z,96582.31
2022-10-14T19:26:22.521Z,96576.16
2022-10-14T19:28:49.986Z,96572.78
2022-10-14T19:31:18.852Z,96574.84
2022-10-14T19:33:46.193Z,96572.09
2022-10-14T19:36:15.417Z,96567.88
2022-10-14T19:38:58.016Z,96566.47
2022-10-14T19:41:26.346Z,96568.50
2022-10-14T19:43:53.780Z,96576.03
2022-10-14T19:46:23.267Z,96583.59
2022-10-14T19:48:50.065Z,96573.31
2022-10-14T19:51:18.195Z,96578.22
2022-10-14T19:53:45.293Z,96575.47
2022-10-14T19:56:13.233Z,96579.63
2022-10-14T19:58:43.889Z,96573.97
2022-10-14T20:01:17.042Z,96582.88
2022-10-14T20:03:44.251Z,96578.13
2022-10-14T20:06:12.455Z,96579.56
2022-10-14T20:08:39.551Z,96563.69
2022-10-14T20:11:08.534Z,96564.41
2022-10-14T20:13:35.476Z,96559.59
2022-10-14T20:16:02.545Z,96574.84
2022-10-14T20:18:29.884Z,96563.13
2022-10-14T20:20:56.942Z,96559.03
2022-10-14T20:23:24.800Z,96545.91
2022-10-14T20:25:51.691Z,96535.56
2022-10-14T20:28:21.474Z,96536.34
2022-10-14T20:30:48.397Z,96545.34
2022-10-14T20:33:15.085Z,96557.09
2022-10-14T20:35:41.770Z,96550.16
2022-10-14T20:38:08.483Z,96557.75
2022-10-14T20:40:36.682Z,96546.69
2022-10-14T20:43:03.918Z,96543.28
2022-10-14T20:45:32.344Z,96549.53
2022-10-14T20:48:00.424Z,96535.75
2022-10-14T20:50:27.554Z,96543.44
2022-10-14T20:52:54.897Z,96545.53
2022-10-14T20:55:21.720Z,96548.31
2022-10-14T20:57:48.452Z,96549.00
2022-10-14T21:00:15.770Z,96534.44
2022-10-14T21:05:10.060Z,96538.59
2022-10-14T21:07:36.747Z,96546.91
2022-10-14T21:10:03.791Z,96547.59
2022-10-14T21:12:30.583Z,96544.13
2022-10-14T21:14:57.296Z,96540.00
2022-10-14T21:17:24.102Z,96531.72
2022-10-14T21:19:50.867Z,96539.38
2022-10-14T21:22:17.512Z,96538.66
2022-10-14T21:24:44.303Z,96533.13
2022-10-14T21:27:10.971Z,96526.31
2022-10-14T21:29:37.714Z,96537.38
2022-10-14T21:32:04.639Z,96527.03
2022-10-14T21:34:31.611Z,96523.63
2022-10-14T21:36:58.419Z,96524.97
2022-10-14T21:39:25.161Z,96532.63
2022-10-14T21:41:52.111Z,96514.06
2022-10-14T21:44:20.376Z,96525.13
2022-10-14T21:46:47.821Z,96518.09
2022-10-14T21:49:15.273Z,96531.25
2022-10-14T21:51:41.961Z,96529.94
2022-10-14T21:54:12.219Z,96521.56
2022-10-14T21:56:39.405Z,96534.72
2022-10-14T21:59:06.779Z,96536.88
2022-10-14T22:01:34.020Z,96519.59
2022-10-14T22:04:05.560Z,96516.16
2022-10-14T22:06:34.070Z,96518.28
2022-10-14T22:09:02.168Z,96521.03
2022-10-14T22:11:34.826Z,96518.28
2022-10-14T22:14:03.308Z,96514.91
2022-10-14T22:16:30.186Z,96514.91
2022-10-14T22:18:59.689Z,96512.84
2022-10-14T22:21:28.098Z,96513.53
2022-10-14T22:23:54.911Z,96503.88
2022-10-14T22:26:23.365Z,96492.81
2022-10-14T22:28:50.955Z,96494.25
2022-10-14T22:31:20.122Z,96489.41
2022-10-14T22:33:48.174Z,96485.94
2022-10-14T22:36:19.408Z,96497.72
2022-10-14T22:38:50.106Z,96497.72
2022-10-14T22:41:17.901Z,96494.25
2022-10-14T22:43:55.591Z,96495.59
2022-10-14T22:46:24.767Z,96489.41
2022-10-14T22:48:56.831Z,96500.47
2022-10-14T22:53:53.916Z,96500.56
2022-10-14T22:56:22.711Z,96511.63
2022-10-14T22:58:57.280Z,96507.41
2022-10-14T23:01:24.222Z,96505.34
2022-10-14T23:03:51.061Z,96509.47
2022-10-14T23:06:17.753Z,96504.03
2022-10-14T23:08:44.745Z,96502.66
2022-10-14T23:11:19.737Z,96501.97
2022-10-14T23:13:46.911Z,96511.72
2022-10-14T23:16:17.798Z,96503.38
2022-10-14T23:18:45.813Z,96513.06
2022-10-14T23:21:19.361Z,96506.13
2022-10-14T23:23:47.716Z,96505.50
2022-10-14T23:26:21.188Z,96510.31
2022-10-14T23:28:49.550Z,96505.50
2022-10-14T23:31:18.455Z,96510.31
2022-10-14T23:33:45.238Z,96508.25
2022-10-14T23:36:13.646Z,96514.50
2022-10-14T23:38:40.823Z,96511.00
2022-10-14T23:41:08.706Z,96515.84
2022-10-14T23:43:35.570Z,96511.72
2022-10-14T23:46:02.587Z,96515.94
2022-10-14T23:48:29.499Z,96521.50
2022-10-14T23:50:56.171Z,96527.03
2022-10-14T23:53:23.046Z,96523.56
2022-10-14T23:55:49.784Z,96520.09
2022-10-14T23:58:16.629Z,96527.03
